sensor_id;sensor_type;location;lat;lon;timestamp;pressure;altitude;pressure_sealevel;temperature;humidity
7480;BME280;3781;42.272;22.658;2024-03-23T00:55:44;94517.41;;;2.76;100.00
7480;BME280;3781;42.272;22.658;2024-03-23T00:58:10;94525.19;;;2.88;99.76
7480;BME280;3781;42.272;22.658;2024-03-23T01:00:37;94518.59;;;2.84;99.35
7480;BME280;3781;42.272;22.658;2024-03-23T01:03:03;94502.00;;;2.90;98.33
7480;BME280;3781;42.272;22.658;2024-03-23T01:05:32;94520.25;;;3.14;96.70
7480;BME280;3781;42.272;22.658;2024-03-23T01:07:58;94528.31;;;2.93;95.53
7480;BME280;3781;42.272;22.658;2024-03-23T01:10:24;94505.31;;;2.78;96.55
7480;BME280;3781;42.272;22.658;2024-03-23T01:12:51;94518.50;;;2.86;99.65
7480;BME280;3781;42.272;22.658;2024-03-23T01:15:18;94522.44;;;2.77;100.00
7480;BME280;3781;42.272;22.658;2024-03-23T01:17:44;94517.47;;;2.74;100.00
7480;BME280;3781;42.272;22.658;2024-03-23T01:20:11;94527.09;;;2.71;100.00
7480;BME280;3781;42.272;22.658;2024-03-23T01:22:37;94514.44;;;2.68;100.00
7480;BME280;3781;42.272;22.658;2024-03-23T01:25:04;94523.28;;;2.78;100.00
7480;BME280;3781;42.272;22.658;2024-03-23T01:27:29;94524.97;;;2.63;100.00
7480;BME280;3781;42.272;22.658;2024-03-23T01:29:58;94507.19;;;2.46;100.00
7480;BME280;3781;42.272;22.658;2024-03-23T01:32:23;94527.34;;;2.52;100.00
7480;BME280;3781;42.272;22.658;2024-03-23T01:34:50;94524.00;;;2.36;100.00
7480;BME280;3781;42.272;22.658;2024-03-23T01:37:16;94424.50;;;1.55;100.00
7480;BME280;3781;42.272;22.658;2024-03-23T01:39:42;94515.50;;;2.06;100.00
7480;BME280;3781;42.272;22.658;2024-03-23T01:42:08;94517.06;;;2.08;100.00
7480;BME280;3781;42.272;22.658;2024-03-23T01:44:35;94518.22;;;2.03;100.00
7480;BME280;3781;42.272;22.658;2024-03-23T01:47:02;94494.31;;;1.73;100.00
7480;BME280;3781;42.272;22.658;2024-03-23T01:49:29;94517.09;;;1.93;100.00
7480;BME280;3781;42.272;22.658;2024-03-23T01:51:56;94486.97;;;1.82;100.00
7480;BME280;3781;42.272;22.658;2024-03-23T01:54:23;94483.09;;;1.75;100.00
7480;BME280;3781;42.272;22.658;2024-03-23T01:56:49;94513.31;;;1.69;100.00
7480;BME280;3781;42.272;22.658;2024-03-23T01:59:16;94525.53;;;1.64;100.00
7480;BME280;3781;42.272;22.658;2024-03-23T02:01:41;94429.50;;;1.11;100.00
7480;BME280;3781;42.272;22.658;2024-03-23T02:04:09;94490.03;;;1.58;100.00
7480;BME280;3781;42.272;22.658;2024-03-23T02:06:35;94518.94;;;1.60;100.00
7480;BME280;3781;42.272;22.658;2024-03-23T02:09:02;94471.06;;;1.46;100.00
7480;BME280;3781;42.272;22.658;2024-03-23T02:11:29;94517.50;;;1.85;100.00
7480;BME280;3781;42.272;22.658;2024-03-23T02:13:56;94481.47;;;1.59;100.00
7480;BME280;3781;42.272;22.658;2024-03-23T02:16:21;94519.75;;;1.91;100.00
7480;BME280;3781;42.272;22.658;2024-03-23T02:18:48;94509.31;;;1.94;100.00
7480;BME280;3781;42.272;22.658;2024-03-23T02:21:15;94517.66;;;1.98;100.00
7480;BME280;3781;42.272;22.658;2024-03-23T02:23:43;94495.97;;;1.74;100.00
7480;BME280;3781;42.272;22.658;2024-03-23T02:26:09;94509.53;;;1.76;100.00
7480;BME280;3781;42.272;22.658;2024-03-23T02:28:36;94509.03;;;1.69;100.00
7480;BME280;3781;42.272;22.658;2024-03-23T02:31:02;94512.97;;;1.75;100.00
7480;BME280;3781;42.272;22.658;2024-03-23T02:33:29;94473.56;;;1.47;100.00
7480;BME280;3781;42.272;22.658;2024-03-23T02:35:56;94506.53;;;1.68;100.00
7480;BME280;3781;42.272;22.658;2024-03-23T02:38:23;94533.13;;;1.81;100.00
7480;BME280;3781;42.272;22.658;2024-03-23T02:40:50;94543.53;;;1.78;100.00
7480;BME280;3781;42.272;22.658;2024-03-23T02:43:17;94521.34;;;1.63;100.00
7480;BME280;3781;42.272;22.658;2024-03-23T02:45:42;94533.81;;;1.69;100.00
7480;BME280;3781;42.272;22.658;2024-03-23T02:48:09;94487.59;;;1.40;100.00
7480;BME280;3781;42.272;22.658;2024-03-23T02:50:35;94521.41;;;1.14;100.00
7480;BME280;3781;42.272;22.658;2024-03-23T02:53:01;94534.84;;;1.02;100.00
7480;BME280;3781;42.272;22.658;2024-03-23T02:55:27;94507.97;;;0.78;100.00
7480;BME280;3781;42.272;22.658;2024-03-23T02:57:56;94484.06;;;0.79;100.00
7480;BME280;3781;42.272;22.658;2024-03-23T03:00:21;94502.88;;;0.78;100.00
7480;BME280;3781;42.272;22.658;2024-03-23T03:02:48;94502.88;;;0.78;100.00
7480;BME280;3781;42.272;22.658;2024-03-23T03:05:14;94507.97;;;0.78;100.00
7480;BME280;3781;42.272;22.658;2024-03-23T03:07:40;94516.06;;;0.86;100.00
7480;BME280;3781;42.272;22.658;2024-03-23T03:10:06;94474.47;;;0.67;100.00
7480;BME280;3781;42.272;22.658;2024-03-23T03:12:36;94495.47;;;0.89;100.00
7480;BME280;3781;42.272;22.658;2024-03-23T03:15:05;94495.16;;;0.95;100.00
7480;BME280;3781;42.272;22.658;2024-03-23T03:17:32;94520.25;;;1.04;100.00
7480;BME280;3781;42.272;22.658;2024-03-23T03:19:58;94519.91;;;1.10;100.00
7480;BME280;3781;42.272;22.658;2024-03-23T03:22:25;94457.16;;;0.72;100.00
7480;BME280;3781;42.272;22.658;2024-03-23T03:24:51;94508.44;;;1.02;100.00
7480;BME280;3781;42.272;22.658;2024-03-23T03:27:17;94480.75;;;0.77;100.00
7480;BME280;3781;42.272;22.658;2024-03-23T03:29:44;94513.59;;;1.00;100.00
7480;BME280;3781;42.272;22.658;2024-03-23T03:32:11;94511.47;;;0.93;100.00
7480;BME280;3781;42.272;22.658;2024-03-23T03:34:38;94508.25;;;0.89;100.00
7480;BME280;3781;42.272;22.658;2024-03-23T03:37:04;94485.72;;;0.80;100.00
7480;BME280;3781;42.272;22.658;2024-03-23T03:39:31;94533.31;;;0.98;100.00
7480;BME280;3781;42.272;22.658;2024-03-23T03:41:57;94517.69;;;0.87;100.00
7480;BME280;3781;42.272;22.658;2024-03-23T03:44:23;94464.06;;;0.54;100.00
7480;BME280;3781;42.272;22.658;2024-03-23T03:46:49;94518.03;;;0.81;100.00
7480;BME280;3781;42.272;22.658;2024-03-23T03:49:17;94517.97;;;0.83;100.00
7480;BME280;3781;42.272;22.658;2024-03-23T03:51:43;94503.00;;;0.75;100.00
7480;BME280;3781;42.272;22.658;2024-03-23T03:54:10;94529.13;;;0.97;100.00
7480;BME280;3781;42.272;22.658;2024-03-23T03:56:35;94513.25;;;0.75;100.00
7480;BME280;3781;42.272;22.658;2024-03-23T03:59:02;94514.59;;;0.82;100.00
7480;BME280;3781;42.272;22.658;2024-03-23T04:01:28;94505.59;;;0.58;100.00
7480;BME280;3781;42.272;22.658;2024-03-23T04:03:54;94520.63;;;0.64;100.00
7480;BME280;3781;42.272;22.658;2024-03-23T04:06:22;94530.63;;;0.68;100.00
7480;BME280;3781;42.272;22.658;2024-03-23T04:08:48;94531.50;;;0.67;100.00
7480;BME280;3781;42.272;22.658;2024-03-23T04:11:14;94454.72;;;0.21;100.00
7480;BME280;3781;42.272;22.658;2024-03-23T04:13:41;94522.88;;;0.53;100.00
7480;BME280;3781;42.272;22.658;2024-03-23T04:16:07;94506.53;;;0.40;100.00
7480;BME280;3781;42.272;22.658;2024-03-23T04:18:34;94528.31;;;0.47;100.00
7480;BME280;3781;42.272;22.658;2024-03-23T04:21:00;94497.06;;;0.25;100.00
7480;BME280;3781;42.272;22.658;2024-03-23T04:23:28;94546.50;;;0.58;100.00
7480;BME280;3781;42.272;22.658;2024-03-23T04:25:54;94544.16;;;0.53;100.00
7480;BME280;3781;42.272;22.658;2024-03-23T04:28:20;94533.19;;;0.51;100.00
7480;BME280;3781;42.272;22.658;2024-03-23T04:30:46;94533.09;;;0.53;100.00
7480;BME280;3781;42.272;22.658;2024-03-23T04:33:13;94549.78;;;0.60;100.00
7480;BME280;3781;42.272;22.658;2024-03-23T04:35:39;94556.41;;;0.64;100.00
7480;BME280;3781;42.272;22.658;2024-03-23T04:38:05;94560.00;;;0.60;100.00
7480;BME280;3781;42.272;22.658;2024-03-23T04:40:33;94508.13;;;0.25;100.00
7480;BME280;3781;42.272;22.658;2024-03-23T04:42:59;94449.63;;;-0.31;100.00
7480;BME280;3781;42.272;22.658;2024-03-23T04:45:26;94522.81;;;0.03;100.00
7480;BME280;3781;42.272;22.658;2024-03-23T04:47:53;94529.38;;;0.09;100.00
7480;BME280;3781;42.272;22.658;2024-03-23T04:50:20;94458.56;;;-0.22;100.00
7480;BME280;3781;42.272;22.658;2024-03-23T04:52:46;94503.09;;;0.24;100.00
7480;BME280;3781;42.272;22.658;2024-03-23T04:55:13;94553.84;;;0.64;100.00
7480;BME280;3781;42.272;22.658;2024-03-23T04:57:42;94515.69;;;0.44;100.00
7480;BME280;3781;42.272;22.658;2024-03-23T05:00:08;94553.81;;;0.81;100.00
7480;BME280;3781;42.272;22.658;2024-03-23T05:02:44;94558.00;;;0.99;100.00
7480;BME280;3781;42.272;22.658;2024-03-23T05:05:10;94534.75;;;1.04;100.00
7480;BME280;3781;42.272;22.658;2024-03-23T05:07:37;94512.81;;;1.15;100.00
7480;BME280;3781;42.272;22.658;2024-03-23T05:10:04;94538.91;;;1.53;100.00
7480;BME280;3781;42.272;22.658;2024-03-23T05:12:30;94547.69;;;1.80;100.00
7480;BME280;3781;42.272;22.658;2024-03-23T05:14:58;94524.69;;;1.79;100.00
7480;BME280;3781;42.272;22.658;2024-03-23T05:17:25;94542.69;;;2.08;100.00
7480;BME280;3781;42.272;22.658;2024-03-23T05:19:51;94536.03;;;2.20;100.00
7480;BME280;3781;42.272;22.658;2024-03-23T05:22:17;94548.75;;;2.51;100.00
7480;BME280;3781;42.272;22.658;2024-03-23T05:24:45;94515.31;;;2.82;100.00
7480;BME280;3781;42.272;22.658;2024-03-23T05:27:12;94548.09;;;3.34;100.00
7480;BME280;3781;42.272;22.658;2024-03-23T05:29:37;94516.19;;;3.52;100.00
7480;BME280;3781;42.272;22.658;2024-03-23T05:32:06;94533.13;;;3.95;100.00
7480;BME280;3781;42.272;22.658;2024-03-23T05:34:32;94560.28;;;4.26;100.00
7480;BME280;3781;42.272;22.658;2024-03-23T05:36:59;94516.94;;;4.20;96.87
7480;BME280;3781;42.272;22.658;2024-03-23T05:39:24;94492.59;;;4.13;94.96
7480;BME280;3781;42.272;22.658;2024-03-23T05:41:51;94548.84;;;4.56;94.78
7480;BME280;3781;42.272;22.658;2024-03-23T05:44:17;94538.56;;;4.56;94.00
7480;BME280;3781;42.272;22.658;2024-03-23T05:46:44;94537.91;;;4.40;92.15
7480;BME280;3781;42.272;22.658;2024-03-23T05:49:15;94500.00;;;4.56;92.43
7480;BME280;3781;42.272;22.658;2024-03-23T05:51:42;94499.16;;;4.94;88.38
7480;BME280;3781;42.272;22.658;2024-03-23T05:54:07;94549.28;;;5.51;86.19
7480;BME280;3781;42.272;22.658;2024-03-23T05:56:34;94510.25;;;5.81;84.91
7480;BME280;3781;42.272;22.658;2024-03-23T05:59:00;94535.63;;;6.34;80.87
7480;BME280;3781;42.272;22.658;2024-03-23T06:01:28;94546.25;;;6.88;79.00
7480;BME280;3781;42.272;22.658;2024-03-23T06:03:56;94554.66;;;7.25;76.90
7480;BME280;3781;42.272;22.658;2024-03-23T06:06:24;94499.34;;;7.16;74.14
7480;BME280;3781;42.272;22.658;2024-03-23T06:08:49;94545.28;;;7.57;71.39
7480;BME280;3781;42.272;22.658;2024-03-23T06:11:16;94448.16;;;6.88;70.34
7480;BME280;3781;42.272;22.658;2024-03-23T06:13:42;94540.22;;;7.44;72.02
7480;BME280;3781;42.272;22.658;2024-03-23T06:16:08;94518.09;;;6.96;72.62
7480;BME280;3781;42.272;22.658;2024-03-23T06:18:35;94517.56;;;6.58;74.77
7480;BME280;3781;42.272;22.658;2024-03-23T06:21:02;94490.91;;;6.23;77.87
7480;BME280;3781;42.272;22.658;2024-03-23T06:23:30;94540.03;;;6.45;78.91
7480;BME280;3781;42.272;22.658;2024-03-23T06:25:56;94519.06;;;6.26;78.28
7480;BME280;3781;42.272;22.658;2024-03-23T06:28:22;94504.38;;;6.15;79.24
7480;BME280;3781;42.272;22.658;2024-03-23T06:30:49;94548.66;;;6.33;76.43
7480;BME280;3781;42.272;22.658;2024-03-23T06:33:15;94523.06;;;6.30;78.83
7480;BME280;3781;42.272;22.658;2024-03-23T06:35:41;94528.03;;;6.44;80.00
7480;BME280;3781;42.272;22.658;2024-03-23T06:38:07;94541.47;;;6.60;77.79
7480;BME280;3781;42.272;22.658;2024-03-23T06:40:37;94543.41;;;6.69;77.44
7480;BME280;3781;42.272;22.658;2024-03-23T06:43:03;94519.50;;;6.78;75.74
7480;BME280;3781;42.272;22.658;2024-03-23T06:45:31;94522.38;;;7.08;72.58
7480;BME280;3781;42.272;22.658;2024-03-23T06:47:56;94544.00;;;7.63;71.65
7480;BME280;3781;42.272;22.658;2024-03-23T06:50:24;94489.44;;;7.88;67.38
7480;BME280;3781;42.272;22.658;2024-03-23T06:52:50;94543.66;;;8.95;65.29
7480;BME280;3781;42.272;22.658;2024-03-23T06:55:16;94556.59;;;9.67;62.30
7480;BME280;3781;42.272;22.658;2024-03-23T06:57:44;94528.53;;;10.12;59.73
7480;BME280;3781;42.272;22.658;2024-03-23T07:00:12;94533.09;;;10.77;56.65
7480;BME280;3781;42.272;22.658;2024-03-23T07:02:38;94532.09;;;11.35;54.60
7480;BME280;3781;42.272;22.658;2024-03-23T07:05:06;94521.13;;;11.87;53.10
7480;BME280;3781;42.272;22.658;2024-03-23T07:07:32;94531.06;;;12.29;51.57
7480;BME280;3781;42.272;22.658;2024-03-23T07:09:59;94508.97;;;12.05;51.05
7480;BME280;3781;42.272;22.658;2024-03-23T07:12:24;94534.06;;;11.70;51.70
7480;BME280;3781;42.272;22.658;2024-03-23T07:14:52;94536.63;;;11.33;53.07
7480;BME280;3781;42.272;22.658;2024-03-23T07:17:18;94529.56;;;10.87;53.30
7480;BME280;3781;42.272;22.658;2024-03-23T07:19:46;94530.34;;;10.30;57.58
7480;BME280;3781;42.272;22.658;2024-03-23T07:22:12;94519.94;;;10.11;56.97
7480;BME280;3781;42.272;22.658;2024-03-23T07:24:41;94524.03;;;9.83;57.67
7480;BME280;3781;42.272;22.658;2024-03-23T07:27:07;94470.50;;;9.33;59.91
7480;BME280;3781;42.272;22.658;2024-03-23T07:29:35;94470.69;;;9.41;60.24
7480;BME280;3781;42.272;22.658;2024-03-23T07:32:02;94519.13;;;9.80;60.63
7480;BME280;3781;42.272;22.658;2024-03-23T07:34:29;94508.91;;;9.88;59.22
7480;BME280;3781;42.272;22.658;2024-03-23T07:36:55;94518.97;;;10.12;58.65
7480;BME280;3781;42.272;22.658;2024-03-23T07:39:21;94516.06;;;10.06;58.69
7480;BME280;3781;42.272;22.658;2024-03-23T07:41:48;94508.44;;;10.14;58.91
7480;BME280;3781;42.272;22.658;2024-03-23T07:44:14;94516.41;;;10.31;58.53
7480;BME280;3781;42.272;22.658;2024-03-23T07:46:40;94495.38;;;10.34;58.88
7480;BME280;3781;42.272;22.658;2024-03-23T07:49:08;94502.50;;;10.51;57.74
7480;BME280;3781;42.272;22.658;2024-03-23T07:51:34;94496.75;;;10.67;57.45
7480;BME280;3781;42.272;22.658;2024-03-23T07:54:00;94508.34;;;11.11;57.55
7480;BME280;3781;42.272;22.658;2024-03-23T07:56:27;94488.94;;;11.42;53.88
7480;BME280;3781;42.272;22.658;2024-03-23T07:58:52;94442.94;;;12.06;51.96
7480;BME280;3781;42.272;22.658;2024-03-23T08:01:19;94469.06;;;13.28;48.12
7480;BME280;3781;42.272;22.658;2024-03-23T08:03:45;94502.53;;;14.42;46.68
7480;BME280;3781;42.272;22.658;2024-03-23T08:06:15;94503.75;;;15.36;43.98
7480;BME280;3781;42.272;22.658;2024-03-23T08:08:42;94507.44;;;15.90;42.18
7480;BME280;3781;42.272;22.658;2024-03-23T08:11:09;94505.56;;;16.53;40.45
7480;BME280;3781;42.272;22.658;2024-03-23T08:13:36;94464.97;;;16.41;41.66
7480;BME280;3781;42.272;22.658;2024-03-23T08:16:04;94494.50;;;16.66;40.21
7480;BME280;3781;42.272;22.658;2024-03-23T08:18:30;94504.16;;;17.56;39.52
7480;BME280;3781;42.272;22.658;2024-03-23T08:20:57;94459.50;;;17.71;38.97
7480;BME280;3781;42.272;22.658;2024-03-23T08:23:25;94482.34;;;18.64;37.62
7480;BME280;3781;42.272;22.658;2024-03-23T08:25:52;94477.56;;;19.10;35.91
7480;BME280;3781;42.272;22.658;2024-03-23T08:28:18;94497.16;;;19.78;34.79
7480;BME280;3781;42.272;22.658;2024-03-23T08:30:44;94477.56;;;18.89;34.66
7480;BME280;3781;42.272;22.658;2024-03-23T08:33:10;94488.66;;;19.48;34.20
7480;BME280;3781;42.272;22.658;2024-03-23T08:35:38;94485.53;;;19.66;34.01
7480;BME280;3781;42.272;22.658;2024-03-23T08:38:04;94490.06;;;20.47;32.55
7480;BME280;3781;42.272;22.658;2024-03-23T08:40:32;94483.69;;;20.21;32.06
7480;BME280;3781;42.272;22.658;2024-03-23T08:42:58;94479.13;;;19.75;33.08
7480;BME280;3781;42.272;22.658;2024-03-23T08:45:25;94474.22;;;19.72;32.50
7480;BME280;3781;42.272;22.658;2024-03-23T08:47:51;94466.34;;;20.12;33.89
7480;BME280;3781;42.272;22.658;2024-03-23T08:50:17;94481.69;;;20.90;32.22
7480;BME280;3781;42.272;22.658;2024-03-23T08:52:43;94467.56;;;21.18;30.90
7480;BME280;3781;42.272;22.658;2024-03-23T08:55:10;94467.34;;;21.26;30.57
7480;BME280;3781;42.272;22.658;2024-03-23T08:57:37;94467.13;;;21.60;31.18
7480;BME280;3781;42.272;22.658;2024-03-23T09:00:05;94456.56;;;21.47;29.75
7480;BME280;3781;42.272;22.658;2024-03-23T09:02:34;94460.47;;;21.64;30.25
7480;BME280;3781;42.272;22.658;2024-03-23T09:05:01;94463.38;;;22.33;30.35
7480;BME280;3781;42.272;22.658;2024-03-23T09:07:30;94453.69;;;22.14;29.41
7480;BME280;3781;42.272;22.658;2024-03-23T09:09:56;94406.38;;;22.30;29.44
7480;BME280;3781;42.272;22.658;2024-03-23T09:12:22;94412.59;;;22.05;29.51
7480;BME280;3781;42.272;22.658;2024-03-23T09:14:50;94435.25;;;22.38;30.17
7480;BME280;3781;42.272;22.658;2024-03-23T09:17:16;94424.72;;;22.25;29.68
7480;BME280;3781;42.272;22.658;2024-03-23T09:19:43;94398.31;;;22.12;29.93
7480;BME280;3781;42.272;22.658;2024-03-23T09:22:09;94419.16;;;22.46;30.00
7480;BME280;3781;42.272;22.658;2024-03-23T09:24:36;94422.44;;;22.80;29.68
7480;BME280;3781;42.272;22.658;2024-03-23T09:27:02;94396.31;;;22.01;29.27
7480;BME280;3781;42.272;22.658;2024-03-23T09:29:29;94410.44;;;22.33;29.98
7480;BME280;3781;42.272;22.658;2024-03-23T09:31:56;94401.06;;;23.06;29.54
7480;BME280;3781;42.272;22.658;2024-03-23T09:34:23;94391.34;;;23.00;29.69
7480;BME280;3781;42.272;22.658;2024-03-23T09:36:51;94390.63;;;22.86;29.48
7480;BME280;3781;42.272;22.658;2024-03-23T09:39:18;94383.03;;;23.21;28.51
7480;BME280;3781;42.272;22.658;2024-03-23T09:41:44;94352.75;;;22.86;28.75
7480;BME280;3781;42.272;22.658;2024-03-23T09:44:10;94378.81;;;23.38;28.96
7480;BME280;3781;42.272;22.658;2024-03-23T09:46:36;94338.53;;;23.05;29.61
7480;BME280;3781;42.272;22.658;2024-03-23T09:49:07;94359.88;;;23.10;28.89
7480;BME280;3781;42.272;22.658;2024-03-23T09:51:35;94363.13;;;23.61;29.26
7480;BME280;3781;42.272;22.658;2024-03-23T09:54:02;94368.72;;;23.71;28.04
7480;BME280;3781;42.272;22.658;2024-03-23T09:56:28;94357.00;;;23.61;28.14
7480;BME280;3781;42.272;22.658;2024-03-23T09:59:00;94353.72;;;24.20;28.56
7480;BME280;3781;42.272;22.658;2024-03-23T10:01:26;94351.94;;;24.73;28.33
7480;BME280;3781;42.272;22.658;2024-03-23T10:03:53;94343.34;;;24.78;26.82
7480;BME280;3781;42.272;22.658;2024-03-23T10:06:22;94313.91;;;24.79;27.17
7480;BME280;3781;42.272;22.658;2024-03-23T10:08:50;94300.84;;;24.78;27.21
7480;BME280;3781;42.272;22.658;2024-03-23T10:11:16;94327.59;;;25.17;27.74
7480;BME280;3781;42.272;22.658;2024-03-23T10:13:44;94327.34;;;25.07;28.83
7480;BME280;3781;42.272;22.658;2024-03-23T10:16:11;94330.38;;;25.22;26.35
7480;BME280;3781;42.272;22.658;2024-03-23T10:18:38;94305.16;;;24.90;27.75
7480;BME280;3781;42.272;22.658;2024-03-23T10:21:09;94309.69;;;25.48;28.07
7480;BME280;3781;42.272;22.658;2024-03-23T10:23:38;94303.78;;;25.11;28.36
7480;BME280;3781;42.272;22.658;2024-03-23T10:26:16;94301.81;;;25.76;27.03
7480;BME280;3781;42.272;22.658;2024-03-23T10:28:53;94282.53;;;25.97;27.41
7480;BME280;3781;42.272;22.658;2024-03-23T10:31:20;94290.00;;;26.23;26.64
7480;BME280;3781;42.272;22.658;2024-03-23T10:33:48;94281.06;;;26.01;26.15
7480;BME280;3781;42.272;22.658;2024-03-23T10:36:14;94257.06;;;25.73;27.12
7480;BME280;3781;42.272;22.658;2024-03-23T10:38:43;94232.56;;;25.71;27.47
7480;BME280;3781;42.272;22.658;2024-03-23T10:41:10;94276.09;;;26.33;26.50
7480;BME280;3781;42.272;22.658;2024-03-23T10:43:37;94263.38;;;26.23;26.65
7480;BME280;3781;42.272;22.658;2024-03-23T10:46:03;94271.28;;;26.18;26.09
7480;BME280;3781;42.272;22.658;2024-03-23T10:48:31;94259.13;;;26.22;25.99
7480;BME280;3781;42.272;22.658;2024-03-23T10:50:58;94251.97;;;26.39;26.14
7480;BME280;3781;42.272;22.658;2024-03-23T10:53:26;94231.69;;;26.83;25.67
7480;BME280;3781;42.272;22.658;2024-03-23T10:55:54;94196.06;;;25.83;26.82
7480;BME280;3781;42.272;22.658;2024-03-23T10:58:26;94236.63;;;25.50;26.02
7480;BME280;3781;42.272;22.658;2024-03-23T11:00:53;94223.81;;;25.12;27.17
7480;BME280;3781;42.272;22.658;2024-03-23T11:03:36;94226.47;;;24.25;27.13
7480;BME280;3781;42.272;22.658;2024-03-23T11:06:03;94221.03;;;24.02;26.17
7480;BME280;3781;42.272;22.658;2024-03-23T11:08:33;94210.06;;;24.28;26.65
7480;BME280;3781;42.272;22.658;2024-03-23T11:11:16;94207.72;;;24.61;26.31
7480;BME280;3781;42.272;22.658;2024-03-23T11:13:43;94173.25;;;23.06;27.48
7480;BME280;3781;42.272;22.658;2024-03-23T11:16:13;94161.38;;;22.23;28.07
7480;BME280;3781;42.272;22.658;2024-03-23T11:18:40;94171.28;;;22.59;27.93
7480;BME280;3781;42.272;22.658;2024-03-23T11:21:07;94169.66;;;22.08;28.69
7480;BME280;3781;42.272;22.658;2024-03-23T11:23:34;94156.75;;;22.18;28.18
7480;BME280;3781;42.272;22.658;2024-03-23T11:26:00;94154.31;;;21.92;29.13
7480;BME280;3781;42.272;22.658;2024-03-23T11:28:28;94138.25;;;21.12;29.57
7480;BME280;3781;42.272;22.658;2024-03-23T11:30:53;94136.19;;;21.20;30.07
7480;BME280;3781;42.272;22.658;2024-03-23T11:33:20;94148.19;;;21.16;29.87
7480;BME280;3781;42.272;22.658;2024-03-23T11:35:46;94129.06;;;20.04;30.22
7480;BME280;3781;42.272;22.658;2024-03-23T11:38:15;94125.19;;;19.74;30.42
7480;BME280;3781;42.272;22.658;2024-03-23T11:40:42;94118.31;;;20.06;32.00
7480;BME280;3781;42.272;22.658;2024-03-23T11:43:11;94140.00;;;20.47;30.69
7480;BME280;3781;42.272;22.658;2024-03-23T11:45:39;94139.81;;;20.09;29.77
7480;BME280;3781;42.272;22.658;2024-03-23T11:48:08;94109.38;;;19.54;31.34
7480;BME280;3781;42.272;22.658;2024-03-23T11:50:36;94133.91;;;19.62;30.36
7480;BME280;3781;42.272;22.658;2024-03-23T11:53:07;94115.47;;;20.14;30.05
7480;BME280;3781;42.272;22.658;2024-03-23T11:55:39;94103.69;;;20.43;30.09
7480;BME280;3781;42.272;22.658;2024-03-23T11:58:06;94106.94;;;21.15;28.75
7480;BME280;3781;42.272;22.658;2024-03-23T12:00:34;94113.38;;;20.68;28.60
7480;BME280;3781;42.272;22.658;2024-03-23T12:03:02;94062.59;;;21.24;27.45
7480;BME280;3781;42.272;22.658;2024-03-23T12:05:28;94086.63;;;22.09;28.45
7480;BME280;3781;42.272;22.658;2024-03-23T12:07:55;94097.72;;;22.42;27.00
7480;BME280;3781;42.272;22.658;2024-03-23T12:10:40;94092.88;;;22.58;27.42
7480;BME280;3781;42.272;22.658;2024-03-23T12:13:07;94090.69;;;22.55;26.67
7480;BME280;3781;42.272;22.658;2024-03-23T12:15:33;94083.66;;;22.67;26.31
7480;BME280;3781;42.272;22.658;2024-03-23T12:18:07;94087.00;;;22.56;25.89
7480;BME280;3781;42.272;22.658;2024-03-23T12:20:33;94075.44;;;23.41;25.83
7480;BME280;3781;42.272;22.658;2024-03-23T12:23:07;94067.09;;;24.54;23.51
7480;BME280;3781;42.272;22.658;2024-03-23T12:25:34;94080.72;;;24.12;24.34
7480;BME280;3781;42.272;22.658;2024-03-23T12:28:01;94060.25;;;24.93;23.82
7480;BME280;3781;42.272;22.658;2024-03-23T12:30:27;94066.94;;;25.07;23.50
7480;BME280;3781;42.272;22.658;2024-03-23T12:32:54;94048.91;;;25.66;23.68
7480;BME280;3781;42.272;22.658;2024-03-23T12:35:21;94053.25;;;24.18;25.57
7480;BME280;3781;42.272;22.658;2024-03-23T12:37:48;94047.72;;;23.66;25.20
7480;BME280;3781;42.272;22.658;2024-03-23T12:40:14;94046.81;;;22.83;26.05
7480;BME280;3781;42.272;22.658;2024-03-23T12:42:41;94039.09;;;23.59;25.28
7480;BME280;3781;42.272;22.658;2024-03-23T12:45:07;94034.44;;;24.08;24.86
7480;BME280;3781;42.272;22.658;2024-03-23T12:47:34;94038.34;;;24.63;23.60
7480;BME280;3781;42.272;22.658;2024-03-23T12:50:00;94022.28;;;24.81;23.34
7480;BME280;3781;42.272;22.658;2024-03-23T12:52:28;94027.25;;;25.17;23.45
7480;BME280;3781;42.272;22.658;2024-03-23T12:54:55;94007.41;;;24.57;24.07
7480;BME280;3781;42.272;22.658;2024-03-23T12:57:23;94010.31;;;23.33;25.74
7480;BME280;3781;42.272;22.658;2024-03-23T12:59:50;94012.94;;;22.13;25.23
7480;BME280;3781;42.272;22.658;2024-03-23T13:02:18;93977.16;;;22.10;26.41
7480;BME280;3781;42.272;22.658;2024-03-23T13:04:45;93999.59;;;22.62;26.95
7480;BME280;3781;42.272;22.658;2024-03-23T13:07:12;93957.66;;;21.62;27.34
7480;BME280;3781;42.272;22.658;2024-03-23T13:09:39;93946.47;;;22.09;26.01
7480;BME280;3781;42.272;22.658;2024-03-23T13:12:07;93971.22;;;22.99;25.77
7480;BME280;3781;42.272;22.658;2024-03-23T13:14:33;93990.72;;;23.04;26.12
7480;BME280;3781;42.272;22.658;2024-03-23T13:17:00;93994.38;;;22.74;25.98
7480;BME280;3781;42.272;22.658;2024-03-23T13:19:25;93972.38;;;23.33;26.04
7480;BME280;3781;42.272;22.658;2024-03-23T13:21:55;93974.78;;;22.93;26.31
7480;BME280;3781;42.272;22.658;2024-03-23T13:24:22;93969.63;;;22.98;26.83
7480;BME280;3781;42.272;22.658;2024-03-23T13:26:51;93976.16;;;22.11;27.05
7480;BME280;3781;42.272;22.658;2024-03-23T13:29:17;93979.22;;;22.08;29.14
7480;BME280;3781;42.272;22.658;2024-03-23T13:31:44;93969.09;;;22.05;28.95
7480;BME280;3781;42.272;22.658;2024-03-23T13:34:10;93975.13;;;22.30;28.89
7480;BME280;3781;42.272;22.658;2024-03-23T13:36:38;93962.47;;;22.32;27.82
7480;BME280;3781;42.272;22.658;2024-03-23T13:39:04;93965.19;;;22.26;28.26
7480;BME280;3781;42.272;22.658;2024-03-23T13:41:38;93963.41;;;23.04;28.08
7480;BME280;3781;42.272;22.658;2024-03-23T13:44:05;93944.47;;;24.18;26.97
7480;BME280;3781;42.272;22.658;2024-03-23T13:46:32;93950.06;;;25.12;25.12
7480;BME280;3781;42.272;22.658;2024-03-23T13:48:58;93924.31;;;26.51;23.13
7480;BME280;3781;42.272;22.658;2024-03-23T13:51:25;93952.81;;;28.05;21.51
7480;BME280;3781;42.272;22.658;2024-03-23T13:53:52;93955.34;;;28.32;21.28
7480;BME280;3781;42.272;22.658;2024-03-23T13:56:19;93935.34;;;28.81;21.47
7480;BME280;3781;42.272;22.658;2024-03-23T13:58:45;93952.47;;;28.38;19.12
7480;BME280;3781;42.272;22.658;2024-03-23T14:01:15;93951.78;;;29.30;18.01
7480;BME280;3781;42.272;22.658;2024-03-23T14:03:40;93926.94;;;30.00;17.50
7480;BME280;3781;42.272;22.658;2024-03-23T14:06:08;93912.25;;;29.88;17.01